createdAt,value
2023-01-18T00:03:16.039Z,15.04
2023-01-18T00:08:15.833Z,15.07
2023-01-18T00:13:12.584Z,15.11
2023-01-18T00:18:09.069Z,15.16
2023-01-18T00:23:05.725Z,15.17
2023-01-18T00:28:03.296Z,15.18
2023-01-18T00:33:00.233Z,15.18
2023-01-18T00:37:57.109Z,15.17
2023-01-18T00:43:11.999Z,15.22
2023-01-18T00:48:11.912Z,15.30
2023-01-18T00:53:08.530Z,15.27
2023-01-18T00:58:05.189Z,15.32
2023-01-18T01:03:01.918Z,15.20
2023-01-18T01:07:59.158Z,15.29
2023-01-18T01:13:14.472Z,15.21
2023-01-18T01:18:30.382Z,15.21
2023-01-18T01:23:45.862Z,15.41
2023-01-18T01:28:43.394Z,15.30
2023-01-18T01:33:40.015Z,15.27
2023-01-18T01:38:37.278Z,15.29
2023-01-18T01:43:38.120Z,15.48
2023-01-18T01:48:34.746Z,15.38
2023-01-18T01:53:31.575Z,15.37
2023-01-18T01:58:31.316Z,15.46
2023-01-18T02:03:28.140Z,15.44
2023-01-18T02:08:28.492Z,15.38
2023-01-18T02:13:25.747Z,15.45
2023-01-18T02:18:24.685Z,15.43
2023-01-18T02:23:42.130Z,15.49
2023-01-18T02:28:44.411Z,15.58
2023-01-18T02:33:44.891Z,15.71
2023-01-18T02:38:43.824Z,15.71
2023-01-18T02:43:59.892Z,15.77
2023-01-18T02:48:57.477Z,15.81
2023-01-18T02:53:54.293Z,15.76
2023-01-18T02:58:54.464Z,15.77
2023-01-18T03:03:51.754Z,15.74
2023-01-18T03:08:49.905Z,15.81
2023-01-18T03:13:55.727Z,15.81
2023-01-18T03:19:01.550Z,15.83
2023-01-18T03:24:00.341Z,15.88
2023-01-18T03:29:16.572Z,15.96
2023-01-18T03:34:17.687Z,15.89
2023-01-18T03:39:17.593Z,15.90
2023-01-18T03:44:17.913Z,15.99
2023-01-18T03:49:15.866Z,15.93
2023-01-18T03:54:16.175Z,15.94
2023-01-18T03:59:13.920Z,15.92
2023-01-18T04:04:10.907Z,15.84
2023-01-18T04:09:08.248Z,15.84
2023-01-18T04:14:04.780Z,15.78
2023-01-18T04:19:01.349Z,15.70
2023-01-18T04:23:58.198Z,15.79
2023-01-18T04:28:55.404Z,15.58
2023-01-18T04:33:52.009Z,15.63
2023-01-18T04:38:51.894Z,15.62
2023-01-18T04:43:48.558Z,15.53
2023-01-18T04:48:48.671Z,15.40
2023-01-18T04:53:54.808Z,15.41
2023-01-18T04:58:52.283Z,15.37
2023-01-18T05:03:52.629Z,15.39
2023-01-18T05:08:50.096Z,15.43
2023-01-18T05:13:50.499Z,15.39
2023-01-18T05:18:47.497Z,15.37
2023-01-18T05:23:45.243Z,15.29
2023-01-18T05:28:42.521Z,15.30
2023-01-18T05:33:39.168Z,15.33
2023-01-18T05:38:35.683Z,15.40
2023-01-18T05:43:34.587Z,15.31
2023-01-18T05:48:32.244Z,15.40
2023-01-18T05:53:28.855Z,15.48
2023-01-18T05:58:25.917Z,15.50
2023-01-18T06:03:28.242Z,15.47
2023-01-18T06:08:29.092Z,15.57
2023-01-18T06:13:29.236Z,15.55
2023-01-18T06:18:31.001Z,15.56
2023-01-18T06:23:27.822Z,15.57
2023-01-18T06:28:25.504Z,15.66
2023-01-18T06:33:22.313Z,15.59
2023-01-18T06:38:20.087Z,15.59
2023-01-18T06:43:16.859Z,15.59
2023-01-18T06:48:21.397Z,15.60
2023-01-18T06:53:21.495Z,15.60
2023-01-18T06:58:18.292Z,15.64
2023-01-18T07:03:14.897Z,15.64
2023-01-18T07:08:13.854Z,15.89
2023-01-18T07:13:11.320Z,15.96
2023-01-18T07:18:08.064Z,16.06
2023-01-18T07:23:06.904Z,16.27
2023-01-18T07:28:07.703Z,16.34
2023-01-18T07:33:14.330Z,16.47
2023-01-18T07:38:14.750Z,16.37
2023-01-18T07:43:27.227Z,16.44
2023-01-18T07:48:43.390Z,16.53
2023-01-18T07:54:02.525Z,16.57
2023-01-18T08:04:44.964Z,16.84
2023-01-18T08:10:08.671Z,17.00
2023-01-18T08:15:16.000Z,17.03
2023-01-18T08:20:28.471Z,17.16
2023-01-18T08:26:13.937Z,17.29
2023-01-18T08:31:15.845Z,17.44
2023-01-18T08:36:15.245Z,17.63
2023-01-18T08:41:14.169Z,17.74
2023-01-18T08:46:10.714Z,17.82
2023-01-18T08:51:08.034Z,17.79
2023-01-18T08:56:05.692Z,17.89
2023-01-18T09:01:04.530Z,18.03
2023-01-18T09:06:01.383Z,18.09
2023-01-18T09:11:09.769Z,18.05
2023-01-18T09:16:10.695Z,18.03
2023-01-18T09:21:08.629Z,18.08
2023-01-18T09:26:06.468Z,18.12
2023-01-18T09:31:04.630Z,18.15
2023-01-18T09:36:02.025Z,18.18
2023-01-18T09:40:58.928Z,18.08
2023-01-18T09:45:56.276Z,18.21
2023-01-18T09:50:53.978Z,18.24
2023-01-18T09:55:56.289Z,18.25
2023-01-18T10:00:55.471Z,18.30
2023-01-18T10:06:24.162Z,18.42
2023-01-18T10:11:25.810Z,18.54
2023-01-18T10:16:22.913Z,18.60
2023-01-18T10:21:26.885Z,18.79
2023-01-18T10:26:26.933Z,18.79
2023-01-18T10:31:31.510Z,18.73
2023-01-18T10:36:32.058Z,18.80
2023-01-18T10:41:33.013Z,18.84
2023-01-18T10:46:32.429Z,18.99
2023-01-18T10:51:30.864Z,19.04
2023-01-18T10:56:28.427Z,19.27
2023-01-18T11:01:27.608Z,19.25
2023-01-18T11:06:25.010Z,19.28
2023-01-18T11:11:48.888Z,19.58
2023-01-18T11:16:57.759Z,19.55
2023-01-18T11:21:54.921Z,19.68
2023-01-18T11:27:06.389Z,19.84
2023-01-18T11:32:06.064Z,19.85
2023-01-18T11:37:03.492Z,19.84
2023-01-18T11:42:15.253Z,19.95
2023-01-18T11:47:19.640Z,19.98
2023-01-18T11:52:22.623Z,20.01
2023-01-18T11:57:19.780Z,20.07
2023-01-18T12:02:45.015Z,20.09
2023-01-18T12:07:48.826Z,20.19
2023-01-18T12:12:56.246Z,20.22
2023-01-18T12:18:12.818Z,20.28
2023-01-18T12:23:30.747Z,20.26
2023-01-18T12:28:33.962Z,20.49
2023-01-18T12:33:43.818Z,20.36
2023-01-18T12:38:46.035Z,20.35
2023-01-18T12:43:48.930Z,20.34
2023-01-18T12:48:48.618Z,20.35
2023-01-18T12:53:48.719Z,20.47
2023-01-18T12:58:46.711Z,20.43
2023-01-18T13:03:44.440Z,20.46
2023-01-18T13:08:44.658Z,20.44
2023-01-18T13:13:44.296Z,20.41
2023-01-18T13:18:43.723Z,20.42
2023-01-18T13:23:46.338Z,20.36
2023-01-18T13:28:45.753Z,20.43
2023-01-18T13:33:44.948Z,20.33
2023-01-18T13:38:49.712Z,20.28
2023-01-18T13:44:03.987Z,20.17
2023-01-18T13:49:01.815Z,20.06
2023-01-18T13:53:59.838Z,19.86
2023-01-18T13:59:01.489Z,19.76
2023-01-18T14:04:05.635Z,19.71
2023-01-18T14:09:04.873Z,19.69
2023-01-18T14:14:08.717Z,19.70
2023-01-18T14:19:13.931Z,19.45
2023-01-18T14:24:28.362Z,19.35
2023-01-18T14:29:31.229Z,19.28
2023-01-18T14:34:39.229Z,19.16
2023-01-18T14:39:35.827Z,19.08
2023-01-18T14:44:48.677Z,19.07
2023-01-18T14:49:55.180Z,18.94
2023-01-18T14:54:54.219Z,19.00
2023-01-18T14:59:51.930Z,18.91
2023-01-18T15:04:48.970Z,18.80
2023-01-18T15:09:49.412Z,18.79
2023-01-18T15:20:25.786Z,18.76
2023-01-18T15:25:25.519Z,18.65
2023-01-18T15:30:23.091Z,18.58
2023-01-18T15:35:21.311Z,18.64
2023-01-18T15:40:32.966Z,18.48
2023-01-18T15:45:34.196Z,18.43
2023-01-18T15:50:33.191Z,18.35
2023-01-18T15:55:32.972Z,18.30
2023-01-18T16:00:31.833Z,18.21
2023-01-18T16:05:29.499Z,18.06
2023-01-18T16:10:29.674Z,18.07
2023-01-18T16:15:27.263Z,17.93
2023-01-18T16:20:23.930Z,17.86
2023-01-18T16:25:22.973Z,17.75
2023-01-18T16:30:20.960Z,17.72
2023-01-18T16:35:18.600Z,17.68
2023-01-18T16:40:16.355Z,17.64
2023-01-18T16:45:13.978Z,17.59
2023-01-18T16:50:13.905Z,17.55
2023-01-18T16:55:11.863Z,17.50
2023-01-18T17:00:15.233Z,17.53
2023-01-18T17:05:15.650Z,17.33
2023-01-18T17:10:19.270Z,17.32
2023-01-18T17:15:15.992Z,17.27
2023-01-18T17:20:16.665Z,17.25
2023-01-18T17:25:13.475Z,17.24
2023-01-18T17:30:11.217Z,17.27
2023-01-18T17:35:08.581Z,17.26
2023-01-18T17:40:22.557Z,17.22
2023-01-18T17:45:21.652Z,17.16
2023-01-18T17:50:24.109Z,17.14
2023-01-18T17:55:27.382Z,17.09
2023-01-18T18:00:27.280Z,17.07
2023-01-18T18:05:23.928Z,17.06
2023-01-18T18:10:21.512Z,16.96
2023-01-18T18:15:21.541Z,16.94
2023-01-18T18:20:18.500Z,16.94
2023-01-18T18:25:15.227Z,17.03
2023-01-18T18:30:14.314Z,17.00
2023-01-18T18:35:26.747Z,16.98
2023-01-18T18:40:23.828Z,17.01
2023-01-18T18:45:21.129Z,16.93
2023-01-18T18:50:20.412Z,16.85
2023-01-18T18:55:18.531Z,16.84
2023-01-18T19:00:15.497Z,16.89
2023-01-18T19:05:19.289Z,16.87
2023-01-18T19:10:15.985Z,16.75
2023-01-18T19:15:12.711Z,16.62
2023-01-18T19:20:13.274Z,16.61
2023-01-18T19:25:10.862Z,16.64
2023-01-18T19:30:12.255Z,16.60
2023-01-18T19:35:09.028Z,16.60
2023-01-18T19:40:06.309Z,16.53
2023-01-18T19:45:04.752Z,16.47
2023-01-18T19:50:04.407Z,16.37
2023-01-18T19:55:04.583Z,16.48
2023-01-18T20:00:06.451Z,16.47
2023-01-18T20:05:09.254Z,16.41
2023-01-18T20:10:06.383Z,16.33
2023-01-18T20:15:03.065Z,16.24
2023-01-18T20:19:59.693Z,16.32
2023-01-18T20:24:57.194Z,16.30
2023-01-18T20:29:53.948Z,16.20
2023-01-18T20:34:50.612Z,16.20
2023-01-18T20:39:49.611Z,16.14
2023-01-18T20:44:49.758Z,16.18
2023-01-18T20:49:46.505Z,16.12
2023-01-18T20:54:45.060Z,16.19
2023-01-18T20:59:41.779Z,16.18
2023-01-18T21:04:39.085Z,16.22
2023-01-18T21:09:35.625Z,16.17
2023-01-18T21:14:32.082Z,16.35
2023-01-18T21:19:28.779Z,16.30
2023-01-18T21:24:25.919Z,16.34
2023-01-18T21:29:22.586Z,16.30
2023-01-18T21:34:19.212Z,16.34
2023-01-18T21:39:17.984Z,16.29
2023-01-18T21:44:33.220Z,16.30
2023-01-18T21:50:18.454Z,16.27
2023-01-18T21:55:04.966Z,16.26
2023-01-18T22:00:02.448Z,16.32
2023-01-18T22:05:04.190Z,16.19
2023-01-18T22:10:06.013Z,16.16
2023-01-18T22:15:04.518Z,16.09
2023-01-18T22:20:01.364Z,16.07
2023-01-18T22:24:59.512Z,16.14
2023-01-18T22:29:56.193Z,16.06
2023-01-18T22:34:53.900Z,16.10
2023-01-18T22:39:51.081Z,16.06
2023-01-18T22:44:47.688Z,16.06
2023-01-18T22:49:44.363Z,16.04
2023-01-18T22:54:41.962Z,16.02
2023-01-18T22:59:38.622Z,16.03
2023-01-18T23:04:35.123Z,16.03
2023-01-18T23:09:31.797Z,16.09
2023-01-18T23:14:47.496Z,16.09
2023-01-18T23:19:44.270Z,16.11
2023-01-18T23:24:40.858Z,16.04
2023-01-18T23:29:39.302Z,16.07
2023-01-18T23:34:35.951Z,16.17
2023-01-18T23:39:50.428Z,16.01
2023-01-18T23:45:06.127Z,16.08
2023-01-18T23:50:21.048Z,15.92
2023-01-18T23:55:17.684Z,16.03
